KSYR/SYR METAR and TAF weather

Enter ICAO airport designator
Station Type Date Time Source
KSYR METAR 2019/02/20 16:54 UTC NOAA

KSYR 201654Z 07007KT 10SM SCT110 OVC180 M05/M12 A3040 RMK AO2 SLP301 T10501117


Station Type Date Time Source
KSYR Decoded METAR 2019/02/20 16:54 UTC NOAA

SYRACUSE HANCOCK INTERNATIONAL AIRPORT , NY, United States (KSYR) 43-07N 76-06W 127M
Feb 20, 2019 - 11:54 AM EST / 2019.02.20 1654 UTC
Wind: from the ENE (070 degrees) at 8 MPH (7 KT):0
Visibility: 10 mile(s):0
Sky conditions: overcast
Temperature: 23.0 F (-5.0 C)
Windchill: 14 F (-10 C):1
Dew Point: 10.9 F (-11.7 C)
Relative Humidity: 59%
Pressure (altimeter): 30.4 in. Hg (1029 hPa)
ob: KSYR 201654Z 07007KT 10SM SCT110 OVC180 M05/M12 A3040 RMK AO2 SLP301 T10501117
cycle: 17

Station Type Date Time Source
KSYR TAF 2019/02/20 18:30 UTC NOAA

TAF KSYR 201727Z 2018/2118 10006KT P6SM OVC035
FM202000 10010KT 2SM -SN OVC025
TEMPO 2020/2023 3/4SM -SN OVC015
FM202300 14010KT 4SM -FZRAPL OVC015
FM210200 16010KT 3SM -FZRA OVC015 WS020/23035KT
FM210800 19008KT P6SM OVC009
FM211500 26012G22KT P6SM OVC015


Example: see airport list